Portada
METAR-TAF:

METAR-TAF

Aeropuertos :

Chengdu, China

Aeropuerto Internacional de Chengdú-Shuangliu

latitud: 30-40N, longitud: 104-01E, altitud: 508 m

Observación

El informe se hizo hace 21 minutos, a las 01:00 UTC
Viento calma
Temperatura 16°C
Humedad 88%
Presión 1024 hPa
Visibilidad: 8000 m

METAR: ZUUU 270100Z 00000MPS 8000 NSC 16/14 Q1024 NOSIG

Hora: 09:21 (01:21 UTC)

Pronóstico

El informe se hizo hace 5 horas y 15 minutos, a las 20:06 UTC
Pronóstico válido del 27 a las 00 UTC al 27 a las 24 UTC
Viento 6 kt del suroeste
Visibilidad: 5000 m
Nubes dispersas a una altura de 3000 ft
neblina

TAF: ZUUU 262006Z 2700/2724 22003MPS 5000 BR SCT030 TX19/2707Z TN13/2723Z

Observaciones y pronósticos meteorológicos de más de 4000 aeropuertos (mensajes METAR y TAF).

Los puntos amarillos y rojos representan las estaciones disponibles.

Ponga el ratón en el punto deseado para ver el nombre de la estación.

Haga clic para ver las observaciones y los pronósticos meteorológicos.

Para cambiar el mapa : haga clic en los botones verdes con una cruz de color negro para hacer un zoom, en el botón verde con un guión para alejar o en las flechas verdes para mapas adyacentes.


METAR-TAF: